Time;durP1;ratioP1;P1;durP2;ratioP2;P2;SDS_P1;SDS_P2;PMS_P1;PMS_P2;Temp;Humidity;BMP_temperature;BMP_pressure;BME280_temperature;BME280_humidity;BME280_pressure;Samples;Min_cycle;Max_cycle;Signal;HPM_P1;HPM_P2
2022/02/24 00:05:26;;;;;;;12.02;4.18;;;;;;;4.07;50.77;98421.41;12617917;23;20026;-76
2022/02/24 00:12:19;;;;;;;9.35;4.03;;;;;;;4.07;50.89;98423.41;12603002;23;20434;-76
2022/02/24 00:18:10;;;;;;;10.20;4.20;;;;;;;3.99;50.65;98420.56;12601792;23;20027;-76
2022/02/24 00:24:39;;;;;;;8.32;4.03;;;;;;;3.90;51.42;98412.72;12665616;23;20412;-75
2022/02/24 00:30:36;;;;;;;9.13;3.97;;;;;;;3.93;51.00;98400.59;12648998;23;20097;-75
2022/02/24 00:44:38;;;;;;;10.90;3.58;;;;;;;3.85;53.15;98388.69;12661958;23;20018;-76
2022/02/24 01:06:28;;;;;;;12.02;4.60;;;;;;;3.48;54.00;98376.66;12663347;23;20047;-76
2022/02/24 01:13:29;;;;;;;10.48;4.05;;;;;;;3.42;55.11;98373.97;12667040;23;20022;-76
2022/02/24 01:19:51;;;;;;;12.38;3.97;;;;;;;3.32;54.02;98361.16;12652411;23;20026;-76
2022/02/24 01:25:50;;;;;;;11.18;4.00;;;;;;;3.22;54.54;98349.78;12679244;23;20101;-76
2022/02/24 01:32:12;;;;;;;7.55;3.90;;;;;;;3.19;54.79;98328.03;12623258;23;20026;-76
2022/02/24 01:46:09;;;;;;;9.90;3.50;;;;;;;3.30;54.85;98322.31;12665468;23;20022;-76
2022/02/24 01:52:40;;;;;;;9.23;2.97;;;;;;;3.22;55.15;98313.19;12666001;23;20344;-76
2022/02/24 01:58:32;;;;;;;10.68;3.60;;;;;;;3.24;55.03;98313.38;12649838;23;20457;-75
2022/02/24 02:05:05;;;;;;;12.70;4.72;;;;;;;3.25;54.96;98309.34;12666055;23;20021;-76
2022/02/24 02:11:35;;;;;;;11.07;3.95;;;;;;;3.20;55.68;98307.47;12681447;23;20025;-76
2022/02/24 03:00:28;;;;;;;12.82;5.03;;;;;;;2.44;57.96;98269.22;12618276;23;20406;-76
2022/02/24 03:23:15;;;;;;;12.68;4.55;;;;;;;2.23;57.43;98227.00;12617925;23;20018;-76
2022/02/24 03:30:12;;;;;;;14.82;5.75;;;;;;;2.19;58.89;98199.75;12648030;23;20361;-75
2022/02/24 03:37:09;;;;;;;13.32;4.38;;;;;;;2.10;57.97;98211.16;12680411;23;20022;-76
2022/02/24 04:00:16;;;;;;;12.50;5.35;;;;;;;1.87;58.50;98183.28;12678108;23;20022;-76
2022/02/24 04:06:09;;;;;;;11.93;5.10;;;;;;;1.76;59.23;98168.94;12634457;23;20029;-76
2022/02/24 04:21:20;;;;;;;13.55;4.80;;;;;;;1.72;58.86;98163.72;12678588;23;20022;-76
2022/02/24 04:27:46;;;;;;;14.20;4.88;;;;;;;1.78;58.99;98145.13;12679856;23;20030;-75
2022/02/24 04:34:43;;;;;;;12.80;5.55;;;;;;;1.69;59.37;98129.00;12671297;23;20026;-75
2022/02/24 05:15:09;;;;;;;11.90;4.28;;;;;;;1.66;59.88;98077.78;12677859;23;20049;-76
2022/02/24 05:38:15;;;;;;;18.17;6.15;;;;;;;1.54;60.66;98030.44;12621186;23;20050;-75
2022/02/24 05:52:52;;;;;;;20.08;6.30;;;;;;;1.68;60.15;98045.72;12619859;23;20022;-75
2022/02/24 06:07:31;;;;;;;17.45;6.28;;;;;;;2.54;60.82;98066.34;12619431;23;20441;-75
2022/02/24 06:13:28;;;;;;;16.17;6.03;;;;;;;4.86;58.67;98074.59;12575344;23;20023;-74
2022/02/24 06:19:21;;;;;;;18.60;6.70;;;;;;;7.54;53.05;98083.19;12618951;23;20054;-75
2022/02/24 06:25:10;;;;;;;19.38;9.52;;;;;;;9.93;52.86;98072.94;12603352;23;20097;-75
2022/02/24 06:30:59;;;;;;;20.92;7.45;;;;;;;11.91;50.03;98068.19;12575457;23;20030;-73
2022/02/24 06:45:31;;;;;;;23.50;7.57;;;;;;;13.21;43.40;98051.38;12701014;23;20024;-73
2022/02/24 06:51:24;;;;;;;22.15;8.65;;;;;;;10.10;46.78;98047.00;12648937;23;20345;-73
2022/02/24 06:57:52;;;;;;;25.27;9.15;;;;;;;7.61;48.74;98058.09;12635473;23;20430;-73
2022/02/24 07:03:44;;;;;;;23.80;10.65;;;;;;;10.69;48.79;98042.94;12663164;23;20089;-73
2022/02/24 07:10:11;;;;;;;28.48;12.77;;;;;;;15.84;35.95;98032.56;12665093;23;20030;-75
2022/02/24 07:24:32;;;;;;;22.05;9.35;;;;;;;20.85;25.40;98035.13;12678591;23;20025;-74
2022/02/24 07:29:53;;;;;;;25.42;8.88;;;;;;;22.10;28.01;98033.84;12681024;23;20459;-74
2022/02/24 07:35:14;;;;;;;21.15;7.88;;;;;;;23.59;27.91;98034.56;12657736;23;20033;-74
2022/02/24 07:40:35;;;;;;;16.17;8.30;;;;;;;23.66;25.48;98019.03;12657112;23;20421;-74
2022/02/24 07:45:56;;;;;;;16.50;7.45;;;;;;;23.78;22.07;98005.03;12657076;23;20018;-79
2022/02/24 07:51:17;;;;;;;19.90;8.20;;;;;;;24.04;20.94;98001.25;12636189;23;20050;-78
2022/02/24 07:56:38;;;;;;;17.02;8.48;;;;;;;24.53;21.74;98002.84;12639087;23;20017;-77
2022/02/24 08:01:59;;;;;;;18.88;8.00;;;;;;;24.88;19.30;97992.66;12656963;23;20021;-77
2022/02/24 08:07:20;;;;;;;18.00;8.80;;;;;;;24.93;17.63;98002.03;12640665;23;20014;-77
2022/02/24 08:12:44;;;;;;;19.38;8.95;;;;;;;24.39;17.13;97997.59;12676545;23;20434;-78
2022/02/24 08:18:05;;;;;;;18.85;9.43;;;;;;;23.47;17.36;97980.88;12656353;23;20026;-75
2022/02/24 08:23:26;;;;;;;21.30;9.25;;;;;;;20.27;20.34;97980.06;12655897;23;20434;-73
2022/02/24 08:28:48;;;;;;;17.38;9.20;;;;;;;20.97;20.09;97968.81;12615373;23;20021;-74
2022/02/24 08:34:09;;;;;;;16.15;8.20;;;;;;;24.18;18.16;97956.59;12635709;23;20014;-75
2022/02/24 08:39:30;;;;;;;15.43;7.35;;;;;;;25.94;15.32;97951.19;12659722;23;20014;-75
2022/02/24 08:44:51;;;;;;;10.43;5.28;;;;;;;26.39;14.87;97943.75;12654826;23;20092;-72
2022/02/24 08:50:26;;;;;;;12.05;5.75;;;;;;;25.16;15.36;97935.28;12640833;23;20445;-74
2022/02/24 08:55:59;;;;;;;13.07;5.80;;;;;;;26.21;14.53;97918.56;12682320;23;20021;-75
2022/02/24 09:01:19;;;;;;;14.40;6.15;;;;;;;23.08;16.60;97917.44;12658857;23;20022;-75
2022/02/24 09:06:40;;;;;;;11.55;5.55;;;;;;;21.33;18.04;97906.72;12666576;23;20041;-75
2022/02/24 09:12:01;;;;;;;9.65;4.72;;;;;;;20.28;19.06;97883.03;12679698;23;20018;-75
2022/02/24 09:17:22;;;;;;;10.73;4.10;;;;;;;19.20;20.53;97889.94;12638206;23;20332;-79
2022/02/24 09:22:43;;;;;;;9.32;5.03;;;;;;;18.90;21.08;97886.75;12639009;23;20143;-79
2022/02/24 09:28:04;;;;;;;8.38;4.38;;;;;;;19.27;21.27;97888.06;12659339;23;20021;-79
2022/02/24 09:33:26;;;;;;;12.00;6.57;;;;;;;19.27;21.61;97888.06;12657950;23;20025;-77
2022/02/24 09:38:47;;;;;;;12.38;6.78;;;;;;;19.03;22.07;97865.31;12644924;23;20075;-77
2022/02/24 09:44:08;;;;;;;9.95;5.35;;;;;;;20.35;21.10;97852.75;12638538;23;20068;-78
2022/02/24 09:49:29;;;;;;;10.35;5.30;;;;;;;19.88;20.13;97850.53;12637580;23;20017;-79
2022/02/24 09:54:50;;;;;;;9.45;5.03;;;;;;;20.43;20.31;97849.47;12657406;23;20069;-77
2022/02/24 10:00:12;;;;;;;11.25;6.25;;;;;;;20.38;19.91;97847.88;12657842;23;20045;-77
2022/02/24 10:05:33;;;;;;;10.10;4.97;;;;;;;20.57;19.56;97844.97;12649322;23;20017;-79
2022/02/24 10:10:54;;;;;;;8.27;4.70;;;;;;;22.84;18.27;97834.38;12618027;23;20022;-77
2022/02/24 10:16:15;;;;;;;9.30;5.15;;;;;;;25.03;16.81;97830.88;12657471;23;20014;-78
2022/02/24 10:21:35;;;;;;;13.90;6.85;;;;;;;25.78;15.45;97819.53;12656969;23;20046;-82
2022/02/24 10:27:16;;;;;;;9.85;5.07;;;;;;;27.29;15.03;97818.97;12637648;23;20029;-81
2022/02/24 10:32:44;;;;;;;10.05;6.43;;;;;;;29.24;12.68;97817.31;12617776;23;20018;-78
2022/02/24 10:38:10;;;;;;;10.43;7.03;;;;;;;30.56;12.54;97806.97;12628243;23;20033;-78
2022/02/24 10:43:32;;;;;;;9.38;4.25;;;;;;;30.12;12.69;97791.59;12617396;23;20449;-82
2022/02/24 10:48:57;;;;;;;7.07;4.20;;;;;;;30.30;11.39;97794.25;12617501;23;20500;-81
2022/02/24 10:54:18;;;;;;;9.95;5.32;;;;;;;30.16;11.96;97777.16;12597338;23;20017;-80
2022/02/24 10:59:39;;;;;;;10.38;5.90;;;;;;;29.17;11.56;97767.81;12615851;23;20018;-81
2022/02/24 11:04:59;;;;;;;12.10;6.00;;;;;;;25.52;13.58;97759.97;12610918;23;20444;-76
2022/02/24 11:10:20;;;;;;;6.75;4.40;;;;;;;23.24;15.21;97742.63;12636453;23;20025;-79
2022/02/24 11:15:41;;;;;;;7.85;4.22;;;;;;;22.06;16.48;97737.38;12615954;23;20018;-78
2022/02/24 11:21:01;;;;;;;6.57;3.22;;;;;;;20.66;18.32;97717.59;12635659;23;20065;-79
2022/02/24 11:26:30;;;;;;;6.60;2.95;;;;;;;19.57;19.82;97707.97;12636080;23;20013;-79
2022/02/24 11:31:55;;;;;;;10.43;3.60;;;;;;;19.00;19.56;97697.59;12635383;23;20014;-81
2022/02/24 11:37:23;;;;;;;7.10;3.28;;;;;;;18.67;20.14;97692.22;12650757;23;20324;-79
2022/02/24 11:42:45;;;;;;;5.93;2.63;;;;;;;18.48;20.93;97673.88;12656700;23;20021;-77
2022/02/24 11:48:15;;;;;;;7.03;3.17;;;;;;;18.27;21.93;97675.25;12615748;23;20030;-85
2022/02/24 11:53:40;;;;;;;7.32;1.83;;;;;;;17.86;21.36;97656.09;12616516;23;20021;-79
2022/02/24 11:59:05;;;;;;;5.25;2.10;;;;;;;18.33;21.46;97647.19;12656008;23;20021;-79
2022/02/24 12:04:27;;;;;;;7.82;2.20;;;;;;;18.97;21.17;97635.97;12652352;23;20017;-79
2022/02/24 12:10:08;;;;;;;8.07;2.87;;;;;;;18.47;21.80;97598.94;12636210;23;20017;-79
2022/02/24 12:15:29;;;;;;;5.18;2.20;;;;;;;18.17;21.94;97593.69;12676092;23;20318;-79
2022/02/24 12:20:50;;;;;;;4.50;1.90;;;;;;;18.49;22.77;97585.59;12614969;23;20025;-79
2022/02/24 12:26:12;;;;;;;3.50;1.70;;;;;;;17.93;22.71;97585.06;12635546;23;20022;-79
2022/02/24 12:31:34;;;;;;;3.78;1.50;;;;;;;17.25;23.61;97566.25;12639162;23;20323;-79
2022/02/24 12:37:05;;;;;;;4.35;1.38;;;;;;;17.07;24.37;97552.88;12654285;23;20014;-79
2022/02/24 12:42:28;;;;;;;8.70;2.70;;;;;;;16.40;24.50;97555.06;12659830;23;20025;-78
2022/02/24 12:47:52;;;;;;;5.97;2.67;;;;;;;16.03;24.92;97547.91;12659757;23;20013;-78
2022/02/24 12:53:47;;;;;;;9.65;2.80;;;;;;;15.70;26.38;97542.94;12662274;23;20018;-78
2022/02/24 12:59:09;;;;;;;7.82;3.13;;;;;;;15.10;27.06;97531.09;12681085;23;20014;-77
2022/02/24 13:05:10;;;;;;;8.27;2.80;;;;;;;14.67;28.22;97522.00;12640236;23;20432;-78
2022/02/24 13:10:39;;;;;;;7.65;2.38;;;;;;;14.66;27.56;97501.63;12642980;23;20307;-75
2022/02/24 13:25:07;;;;;;;8.55;2.20;;;;;;;14.37;28.95;97496.69;12682891;23;20026;-76
2022/02/24 13:31:06;;;;;;;7.18;2.45;;;;;;;14.72;28.72;97487.88;12667446;23;20101;-76
2022/02/24 13:36:31;;;;;;;7.13;2.38;;;;;;;14.99;28.27;97486.28;12658240;23;20024;-77
2022/02/24 13:42:02;;;;;;;5.30;2.20;;;;;;;14.86;28.36;97473.75;12703758;23;20302;-77
2022/02/24 13:47:25;;;;;;;7.45;2.40;;;;;;;14.82;28.54;97467.94;12661556;23;20369;-78
2022/02/24 13:52:48;;;;;;;6.57;2.07;;;;;;;14.60;28.79;97459.94;12680932;23;20033;-77
2022/02/24 13:58:13;;;;;;;4.75;2.00;;;;;;;14.42;28.97;97456.22;12682895;23;20018;-77
2022/02/24 14:12:11;;;;;;;10.45;1.98;;;;;;;14.27;29.46;97451.28;12705599;23;20018;-77
2022/02/24 14:17:33;;;;;;;4.70;1.98;;;;;;;14.27;29.50;97440.78;12681413;23;20018;-77
2022/02/24 14:22:55;;;;;;;6.57;2.10;;;;;;;14.25;30.04;97442.75;12704245;23;20014;-77
2022/02/24 14:28:16;;;;;;;4.25;1.92;;;;;;;14.15;29.88;97423.34;12704607;23;20326;-77
2022/02/24 14:33:37;;;;;;;6.18;2.42;;;;;;;14.01;30.27;97411.44;12639988;23;20468;-77
2022/02/24 14:39:29;;;;;;;5.80;1.60;;;;;;;14.07;31.32;97408.19;12664600;23;20021;-77
2022/02/24 14:44:51;;;;;;;4.70;1.40;;;;;;;14.00;31.18;97393.88;12682189;23;20025;-77
2022/02/24 14:50:40;;;;;;;3.78;1.25;;;;;;;13.80;32.11;97378.88;12666082;23;20353;-77
2022/02/24 14:56:02;;;;;;;7.87;1.93;;;;;;;13.44;32.05;97372.16;12602194;23;20018;-77
2022/02/24 15:01:54;;;;;;;5.35;2.70;;;;;;;13.16;32.68;97371.41;12651546;23;20022;-76
2022/02/24 15:07:15;;;;;;;5.18;2.35;;;;;;;12.89;33.43;97361.66;12661288;23;20330;-79
2022/02/24 15:13:04;;;;;;;5.15;2.13;;;;;;;12.73;34.02;97349.59;12659583;23;20049;-81
2022/02/24 15:18:25;;;;;;;5.13;2.40;;;;;;;12.61;34.26;97341.28;12663559;23;20018;-79
2022/02/24 15:23:47;;;;;;;9.20;3.30;;;;;;;12.28;34.53;97344.41;12676056;23;20021;-80
2022/02/24 15:29:10;;;;;;;9.98;3.22;;;;;;;12.13;35.01;97330.25;12667636;23;20018;-77
2022/02/24 15:34:32;;;;;;;11.85;4.00;;;;;;;12.07;35.29;97327.88;12679129;23;20014;-84
2022/02/24 15:39:53;;;;;;;14.35;4.55;;;;;;;12.14;36.62;97315.66;12700771;23;20029;-81
2022/02/24 15:45:15;;;;;;;9.90;3.92;;;;;;;12.12;35.59;97315.53;12670275;23;20018;-78
2022/02/24 15:50:37;;;;;;;8.35;3.53;;;;;;;12.16;36.00;97306.63;12702695;23;20029;-79
2022/02/24 15:55:58;;;;;;;9.63;3.40;;;;;;;12.14;36.49;97309.34;12623961;23;20029;-78
2022/02/24 16:01:18;;;;;;;10.25;3.40;;;;;;;12.05;36.17;97310.97;12642927;23;20026;-79
2022/02/24 16:06:40;;;;;;;6.85;3.22;;;;;;;11.97;36.40;97297.28;12649257;23;20021;-78
2022/02/24 16:12:03;;;;;;;6.38;2.92;;;;;;;11.86;36.65;97286.84;12677266;23;20022;-78
2022/02/24 16:17:23;;;;;;;7.55;3.20;;;;;;;11.72;37.13;97294.44;12637257;23;20018;-78
2022/02/24 16:22:45;;;;;;;8.23;2.92;;;;;;;11.68;37.08;97292.16;12691514;23;20442;-80
2022/02/24 16:28:06;;;;;;;7.72;3.53;;;;;;;11.59;37.36;97293.03;12681838;23;20049;-85
2022/02/24 16:33:27;;;;;;;8.80;3.90;;;;;;;11.56;37.68;97274.69;12690027;23;20233;-85
2022/02/24 16:38:52;;;;;;;6.80;3.20;;;;;;;11.58;38.07;97269.22;12706859;23;20026;-84
2022/02/24 16:44:13;;;;;;;8.32;3.30;;;;;;;11.54;38.52;97271.78;12710557;23;20032;-84
2022/02/24 16:49:34;;;;;;;8.50;3.83;;;;;;;11.47;38.58;97273.50;12709764;23;20002;-83
2022/02/24 16:54:55;;;;;;;7.97;3.92;;;;;;;11.41;38.52;97261.25;12708140;23;20009;-82
2022/02/24 17:00:17;;;;;;;6.75;3.20;;;;;;;11.40;38.67;97257.03;12707329;23;20054;-80
2022/02/24 17:05:38;;;;;;;6.07;3.38;;;;;;;11.36;39.13;97265.16;12719518;23;20004;-82
2022/02/24 17:10:59;;;;;;;5.72;3.53;;;;;;;11.26;39.29;97268.09;12690111;23;20026;-83
2022/02/24 17:16:21;;;;;;;7.45;3.42;;;;;;;11.23;39.44;97257.44;12713436;23;20120;-85
2022/02/24 17:21:42;;;;;;;6.85;3.40;;;;;;;11.18;39.87;97251.59;12691548;23;20014;-82
2022/02/24 17:27:06;;;;;;;;;;;;;;;11.13;39.94;97255.53;12716071;23;20055;-84
2022/02/24 17:32:28;;;;;;;6.97;2.83;;;;;;;11.12;40.01;97242.91;12692482;23;19944;-85
2022/02/24 17:37:49;;;;;;;6.53;2.50;;;;;;;11.15;40.18;97241.66;12733441;23;20029;-82
2022/02/24 17:43:09;;;;;;;3.92;2.08;;;;;;;11.15;39.82;97236.06;12686027;23;20085;-81
2022/02/24 17:48:32;;;;;;;5.28;2.22;;;;;;;11.13;40.56;97227.59;12691458;23;20045;-82
2022/02/24 17:53:52;;;;;;;3.58;1.98;;;;;;;11.14;40.52;97223.44;12668813;23;20014;-77
2022/02/24 17:59:14;;;;;;;4.35;1.92;;;;;;;11.20;40.75;97216.75;12681586;23;20093;-79
2022/02/24 18:04:35;;;;;;;5.75;2.25;;;;;;;11.26;40.89;97203.13;12654948;23;20017;-77
2022/02/24 18:09:56;;;;;;;6.07;2.17;;;;;;;11.26;40.64;97203.84;12658904;23;20018;-77
2022/02/24 18:15:16;;;;;;;4.65;1.83;;;;;;;11.26;40.85;97214.28;12678249;23;20014;-77
2022/02/24 18:20:37;;;;;;;5.40;1.85;;;;;;;11.29;41.00;97196.28;12637514;23;20013;-77
2022/02/24 18:25:59;;;;;;;4.32;1.42;;;;;;;11.31;41.14;97196.44;12617370;23;20021;-77
2022/02/24 18:31:21;;;;;;;5.03;1.90;;;;;;;11.30;40.81;97194.97;12638640;23;20014;-77
2022/02/24 18:36:42;;;;;;;3.45;1.42;;;;;;;11.28;41.03;97197.66;12639316;23;20025;-77
2022/02/24 18:42:03;;;;;;;4.32;1.50;;;;;;;11.30;41.17;97189.41;12603751;23;20018;-79
2022/02/24 18:47:24;;;;;;;5.18;2.00;;;;;;;11.34;41.08;97189.59;12599774;23;20015;-77
2022/02/24 18:52:51;;;;;;;5.68;1.88;;;;;;;11.25;41.19;97202.41;12620354;23;20014;-82
2022/02/24 18:58:13;;;;;;;4.78;1.85;;;;;;;11.17;41.52;97191.50;12626322;23;20045;-80
2022/02/24 19:04:02;;;;;;;4.22;1.90;;;;;;;11.09;41.18;97202.19;12617715;23;20030;-77
2022/02/24 19:09:26;;;;;;;5.28;2.33;;;;;;;10.99;41.34;97198.84;12617981;23;20041;-77
2022/02/24 19:14:46;;;;;;;8.55;2.47;;;;;;;11.04;41.33;97197.75;12615636;23;20022;-76
2022/02/24 19:20:07;;;;;;;8.25;2.15;;;;;;;11.10;41.28;97200.16;12617057;23;20018;-76
2022/02/24 19:25:30;;;;;;;6.90;2.17;;;;;;;11.09;41.36;97196.63;12597286;23;20014;-77
2022/02/24 19:30:51;;;;;;;4.90;2.17;;;;;;;11.14;41.58;97194.78;12597022;23;20070;-76
2022/02/24 19:36:11;;;;;;;4.15;1.90;;;;;;;11.18;41.25;97195.00;12596641;23;20014;-77
2022/02/24 19:41:33;;;;;;;4.95;1.88;;;;;;;11.17;41.38;97205.47;12562619;23;20018;-77
2022/02/24 19:46:53;;;;;;;5.63;2.20;;;;;;;11.16;41.56;97198.41;12617914;23;20452;-77
2022/02/24 19:52:22;;;;;;;4.57;1.75;;;;;;;11.15;41.52;97180.22;12598674;23;20074;-77
2022/02/24 19:58:16;;;;;;;3.50;1.25;;;;;;;11.16;41.62;97187.25;12597520;23;20025;-77
2022/02/24 20:03:40;;;;;;;4.70;1.65;;;;;;;11.10;42.08;97191.78;12596503;23;20026;-77
2022/02/24 20:09:01;;;;;;;3.58;1.65;;;;;;;11.05;41.72;97196.41;12617171;23;20023;-78
2022/02/24 20:14:21;;;;;;;3.92;1.73;;;;;;;10.98;41.94;97197.38;12617136;23;20026;-79
2022/02/24 20:19:42;;;;;;;2.67;1.30;;;;;;;10.92;42.09;97197.06;12577299;23;20438;-78
2022/02/24 20:25:04;;;;;;;4.13;1.58;;;;;;;10.89;42.23;97203.84;12597591;23;20021;-78
2022/02/24 20:30:25;;;;;;;3.20;1.70;;;;;;;10.84;42.40;97207.75;12617400;23;20019;-79
2022/02/24 20:35:47;;;;;;;7.13;2.75;;;;;;;10.79;42.94;97211.63;12597598;23;20437;-78
2022/02/24 20:41:07;;;;;;;4.80;1.65;;;;;;;10.74;42.68;97207.88;12641216;23;20014;-77
2022/02/24 20:46:28;;;;;;;5.85;1.98;;;;;;;10.71;43.04;97216.75;12637438;23;20045;-76
2022/02/24 20:51:51;;;;;;;6.60;1.70;;;;;;;10.67;42.88;97210.94;12681251;23;20045;-76
2022/02/24 20:57:13;;;;;;;6.60;1.93;;;;;;;10.59;43.36;97206.31;12660614;23;20049;-76
2022/02/24 21:02:38;;;;;;;3.95;1.80;;;;;;;10.54;43.33;97204.66;12663872;23;20448;-79
2022/02/24 21:08:01;;;;;;;4.80;2.08;;;;;;;10.40;43.32;97201.00;12621922;23;20022;-75
2022/02/24 21:13:51;;;;;;;4.72;1.92;;;;;;;10.24;43.89;97208.44;12651760;23;20026;-75
2022/02/24 21:19:41;;;;;;;4.88;2.00;;;;;;;10.08;44.29;97199.78;12637362;23;20034;-76
2022/02/24 21:26:07;;;;;;;4.63;1.90;;;;;;;9.98;44.82;97221.47;12661915;23;20018;-75
2022/02/24 21:33:03;;;;;;;4.50;1.65;;;;;;;9.82;44.54;97212.81;12682816;23;20096;-76
2022/02/24 21:56:12;;;;;;;4.82;1.55;;;;;;;9.53;45.39;97204.75;12681008;23;20033;-75
2022/02/24 22:10:31;;;;;;;4.30;1.58;;;;;;;9.89;45.43;97214.66;12680804;23;20353;-75
2022/02/24 22:16:23;;;;;;;2.67;0.90;;;;;;;10.12;45.23;97224.38;12651041;23;20097;-75
2022/02/24 22:31:58;;;;;;;3.22;1.15;;;;;;;10.06;46.17;97179.41;12680324;23;20039;-75
2022/02/24 22:38:51;;;;;;;5.65;1.00;;;;;;;9.79;46.34;97185.44;12664545;23;20022;-74
2022/02/24 22:44:16;;;;;;;3.60;0.80;;;;;;;9.59;46.45;97204.41;12619480;23;20450;-75
2022/02/24 22:50:08;;;;;;;2.92;0.80;;;;;;;9.46;46.87;97216.88;12589505;23;20030;-75
2022/02/24 22:56:37;;;;;;;3.42;1.10;;;;;;;9.44;47.95;97225.81;12574363;23;20022;-75
2022/02/24 23:10:36;;;;;;;3.10;1.13;;;;;;;9.82;47.15;97235.13;12618185;23;20061;-75
2022/02/24 23:25:09;;;;;;;2.75;0.10;;;;;;;9.10;45.77;97360.03;12618417;23;20018;-75
2022/02/24 23:39:01;;;;;;;0.40;0.10;;;;;;;8.01;48.82;97415.09;12617656;23;20070;-75
2022/02/24 23:52:16;;;;;;;1.85;0.10;;;;;;;7.29;51.12;97436.94;12617542;23;20030;-74
2022/02/24 23:58:07;;;;;;;0.32;0.10;;;;;;;7.13;51.45;97430.88;12602058;23;20026;-75
